createdAt,value
2023-04-18T00:00:42.510Z,20.10
2023-04-18T00:04:56.544Z,23.40
2023-04-18T00:09:05.140Z,22.50
2023-04-18T00:13:12.683Z,23.30
2023-04-18T00:17:22.416Z,21.60
2023-04-18T00:21:30.523Z,21.50
2023-04-18T00:25:38.416Z,21.00
2023-04-18T00:29:47.205Z,24.70
2023-04-18T00:33:56.871Z,26.60
2023-04-18T00:38:04.922Z,22.70
2023-04-18T00:42:12.687Z,23.60
2023-04-18T00:46:20.380Z,23.90
2023-04-18T00:50:27.827Z,22.90
2023-04-18T00:54:35.468Z,22.90
2023-04-18T00:58:43.160Z,23.50
2023-04-18T01:02:53.519Z,23.80
2023-04-18T01:07:02.412Z,19.90
2023-04-18T01:11:09.748Z,23.80
2023-04-18T01:15:17.744Z,23.60
2023-04-18T01:19:25.796Z,23.60
2023-04-18T01:23:33.629Z,24.00
2023-04-18T01:27:41.220Z,25.80
2023-04-18T01:31:49.178Z,24.10
2023-04-18T01:35:56.855Z,23.80
2023-04-18T01:40:05.073Z,25.90
2023-04-18T01:44:13.318Z,26.40
2023-04-18T01:48:21.438Z,23.60
2023-04-18T01:52:29.084Z,22.70
2023-04-18T01:56:42.677Z,22.70
2023-04-18T02:00:51.153Z,23.90
2023-04-18T02:04:59.362Z,25.10
2023-04-18T02:09:07.176Z,23.50
2023-04-18T02:13:15.181Z,22.30
2023-04-18T02:17:23.748Z,25.20
2023-04-18T02:21:31.981Z,24.80
2023-04-18T02:25:39.637Z,21.40
2023-04-18T02:29:47.501Z,24.30
2023-04-18T02:33:54.843Z,23.40
2023-04-18T02:38:05.606Z,22.60
2023-04-18T02:42:13.474Z,24.70
2023-04-18T02:46:21.577Z,25.70
2023-04-18T02:50:30.300Z,24.00
2023-04-18T02:54:38.598Z,24.60
2023-04-18T02:58:46.134Z,23.60
2023-04-18T03:02:57.014Z,26.60
2023-04-18T03:07:05.180Z,31.80
2023-04-18T03:11:14.438Z,30.50
2023-04-18T03:15:23.481Z,27.40
2023-04-18T03:19:32.050Z,25.50
2023-04-18T03:23:39.647Z,26.50
2023-04-18T03:27:47.511Z,21.80
2023-04-18T03:31:55.286Z,26.30
2023-04-18T03:36:03.143Z,24.40
2023-04-18T03:40:13.394Z,24.00
2023-04-18T03:44:21.124Z,20.60
2023-04-18T03:48:29.383Z,20.90
2023-04-18T03:52:40.044Z,24.90
2023-04-18T03:56:48.971Z,21.00
2023-04-18T04:00:56.477Z,22.00
2023-04-18T04:05:07.020Z,24.00
2023-04-18T04:09:15.883Z,23.00
2023-04-18T04:13:23.694Z,22.70
2023-04-18T04:17:31.688Z,25.80
2023-04-18T04:21:41.152Z,20.40
2023-04-18T04:25:49.258Z,22.80
2023-04-18T04:29:56.757Z,24.00
2023-04-18T04:34:05.436Z,25.00
2023-04-18T04:38:14.540Z,22.90
2023-04-18T04:42:25.235Z,20.00
2023-04-18T04:46:34.414Z,20.60
2023-04-18T04:50:44.270Z,23.70
2023-04-18T04:54:52.822Z,21.60
2023-04-18T04:59:01.072Z,24.40
2023-04-18T05:03:11.987Z,25.30
2023-04-18T05:07:21.184Z,24.80
2023-04-18T05:11:29.381Z,19.90
2023-04-18T05:15:37.023Z,25.70
2023-04-18T05:19:45.647Z,23.30
2023-04-18T05:23:53.703Z,24.30
2023-04-18T05:28:04.808Z,24.20
2023-04-18T05:32:12.681Z,23.40
2023-04-18T05:36:20.754Z,23.00
2023-04-18T05:40:28.812Z,25.90
2023-04-18T05:44:36.318Z,23.70
2023-04-18T05:48:44.374Z,24.70
2023-04-18T05:52:52.303Z,24.60
2023-04-18T05:57:01.309Z,22.10
2023-04-18T06:01:10.839Z,19.40
2023-04-18T06:05:20.865Z,25.50
2023-04-18T06:09:31.399Z,23.30
2023-04-18T06:13:39.781Z,23.60
2023-04-18T06:17:48.004Z,22.30
2023-04-18T06:21:57.110Z,24.70
2023-04-18T06:26:06.281Z,21.40
2023-04-18T06:30:15.281Z,24.30
2023-04-18T06:34:23.658Z,22.60
2023-04-18T06:38:32.159Z,21.00
2023-04-18T06:42:41.689Z,22.60
2023-04-18T06:46:49.603Z,21.00
2023-04-18T06:50:57.635Z,24.40
2023-04-18T06:55:05.968Z,25.70
2023-04-18T06:59:15.045Z,21.80
2023-04-18T07:03:23.318Z,23.60
2023-04-18T07:07:31.333Z,22.80
2023-04-18T07:11:40.960Z,24.60
2023-04-18T07:15:48.922Z,25.10
2023-04-18T07:19:56.793Z,24.10
2023-04-18T07:24:05.263Z,24.80
2023-04-18T07:28:12.599Z,23.20
2023-04-18T07:32:21.969Z,23.50
2023-04-18T07:36:30.411Z,22.90
2023-04-18T07:40:38.708Z,25.00
2023-04-18T07:44:47.178Z,24.30
2023-04-18T07:48:55.114Z,26.30
2023-04-18T07:53:03.824Z,21.30
2023-04-18T07:57:12.187Z,24.80
2023-04-18T08:01:21.082Z,21.00
2023-04-18T08:05:29.359Z,24.70
2023-04-18T08:09:37.039Z,24.60
2023-04-18T08:13:45.208Z,22.30
2023-04-18T08:17:54.105Z,21.10
2023-04-18T08:22:11.254Z,21.00
2023-04-18T08:26:20.013Z,21.60
2023-04-18T08:30:27.685Z,23.60
2023-04-18T08:34:39.859Z,22.60
2023-04-18T08:38:48.433Z,21.50
2023-04-18T08:42:59.159Z,20.20
2023-04-18T08:47:07.404Z,18.90
2023-04-18T08:51:15.554Z,19.30
2023-04-18T08:55:24.831Z,19.50
2023-04-18T08:59:35.786Z,19.50
2023-04-18T09:03:44.456Z,20.70
2023-04-18T09:07:54.736Z,17.60
2023-04-18T09:12:14.387Z,17.60
2023-04-18T09:16:22.652Z,16.60
2023-04-18T09:20:35.265Z,19.60
2023-04-18T09:24:55.694Z,18.50
2023-04-18T09:29:03.602Z,19.50
2023-04-18T09:33:12.882Z,20.40
2023-04-18T09:37:22.116Z,20.20
2023-04-18T09:41:31.310Z,21.10
2023-04-18T09:45:39.208Z,20.80
2023-04-18T09:49:50.941Z,20.50
2023-04-18T09:53:59.119Z,21.10
2023-04-18T09:58:09.164Z,22.10
2023-04-18T10:02:21.498Z,21.20
2023-04-18T10:06:33.797Z,22.80
2023-04-18T10:10:42.417Z,23.50
2023-04-18T10:14:49.630Z,20.70
2023-04-18T10:18:58.982Z,23.60
2023-04-18T10:23:49.267Z,21.80
2023-04-18T10:28:02.125Z,23.90
2023-04-18T10:32:10.857Z,23.90
2023-04-18T10:36:20.707Z,26.80
2023-04-18T10:40:37.507Z,22.80
2023-04-18T10:44:45.507Z,23.30
2023-04-18T10:49:16.534Z,23.90
2023-04-18T10:53:24.874Z,22.00
2023-04-18T10:57:43.675Z,26.70
2023-04-18T11:01:57.649Z,21.90
2023-04-18T11:06:06.907Z,23.40
2023-04-18T11:10:17.768Z,22.80
2023-04-18T11:14:26.651Z,22.30
2023-04-18T11:18:43.987Z,22.20
2023-04-18T11:22:54.025Z,20.80
2023-04-18T11:27:02.340Z,23.30
2023-04-18T11:31:10.473Z,22.90
2023-04-18T11:35:20.134Z,21.70
2023-04-18T11:39:30.161Z,21.20
2023-04-18T11:43:39.517Z,25.50
2023-04-18T11:47:48.570Z,25.00
2023-04-18T11:51:56.486Z,27.20
2023-04-18T11:56:04.894Z,27.90
2023-04-18T12:00:15.213Z,28.40
2023-04-18T12:04:25.365Z,23.70
2023-04-18T12:08:34.832Z,23.30
2023-04-18T12:12:50.764Z,27.70
2023-04-18T12:16:59.278Z,23.80
2023-04-18T12:21:09.727Z,24.90
2023-04-18T12:25:25.211Z,27.10
2023-04-18T12:29:41.003Z,32.60
2023-04-18T12:33:49.735Z,27.80
2023-04-18T12:37:58.964Z,27.70
2023-04-18T12:42:06.861Z,25.60
2023-04-18T12:46:15.464Z,26.70
2023-04-18T12:50:26.360Z,28.90
2023-04-18T12:54:35.182Z,30.10
2023-04-18T12:58:45.440Z,31.10
2023-04-18T13:02:54.430Z,32.30
2023-04-18T13:07:02.616Z,31.00
2023-04-18T13:11:10.992Z,32.30
2023-04-18T13:15:19.159Z,36.80
2023-04-18T13:19:28.044Z,35.30
2023-04-18T13:23:36.066Z,29.70
2023-04-18T13:27:46.541Z,33.50
2023-04-18T13:31:54.622Z,34.80
2023-04-18T13:36:02.690Z,28.60
2023-04-18T13:40:12.806Z,35.30
2023-04-18T13:44:22.336Z,33.30
2023-04-18T13:48:30.420Z,34.50
2023-04-18T13:52:38.073Z,31.30
2023-04-18T13:56:46.121Z,34.20
2023-04-18T14:00:54.278Z,34.10
2023-04-18T14:05:01.792Z,33.30
2023-04-18T14:09:09.704Z,30.80
2023-04-18T14:13:19.388Z,29.90
2023-04-18T14:17:27.344Z,30.60
2023-04-18T14:21:35.958Z,31.70
2023-04-18T14:25:43.979Z,33.10
2023-04-18T14:29:52.561Z,31.30
2023-04-18T14:34:02.603Z,33.80
2023-04-18T14:38:11.560Z,35.70
2023-04-18T14:42:19.764Z,34.60
2023-04-18T14:46:29.294Z,33.20
2023-04-18T14:50:39.458Z,30.70
2023-04-18T14:54:47.163Z,29.90
2023-04-18T14:58:55.581Z,33.40
2023-04-18T15:03:03.942Z,31.60
2023-04-18T15:07:13.405Z,33.40
2023-04-18T15:11:21.945Z,33.60
2023-04-18T15:15:31.152Z,31.60
2023-04-18T15:19:38.797Z,30.60
2023-04-18T15:23:47.170Z,29.30
2023-04-18T15:27:55.890Z,28.80
2023-04-18T15:32:03.906Z,28.50
2023-04-18T15:36:12.632Z,32.50
2023-04-18T15:40:34.692Z,31.20
2023-04-18T15:45:19.874Z,29.30
2023-04-18T15:49:53.922Z,34.80
2023-04-18T15:54:16.352Z,32.00
2023-04-18T15:58:30.469Z,29.80
2023-04-18T16:02:44.174Z,28.00
2023-04-18T16:06:58.849Z,27.90
2023-04-18T16:11:07.246Z,38.80
2023-04-18T16:15:16.114Z,26.70
2023-04-18T16:19:27.124Z,27.80
2023-04-18T16:23:35.513Z,26.20
2023-04-18T16:27:43.858Z,28.70
2023-04-18T16:31:52.765Z,25.00
2023-04-18T16:36:03.921Z,26.20
2023-04-18T16:40:12.588Z,28.00
2023-04-18T16:44:20.764Z,26.80
2023-04-18T16:48:29.449Z,30.30
2023-04-18T16:52:37.771Z,28.00
2023-04-18T16:56:46.245Z,24.40
2023-04-18T17:00:54.073Z,29.40
2023-04-18T17:05:01.873Z,29.70
2023-04-18T17:09:13.541Z,28.40
2023-04-18T17:13:22.969Z,27.70
2023-04-18T17:17:31.340Z,29.00
2023-04-18T17:21:39.756Z,29.10
2023-04-18T17:25:47.558Z,29.10
2023-04-18T17:29:55.400Z,35.20
2023-04-18T17:34:03.778Z,33.10
2023-04-18T17:38:12.044Z,31.40
2023-04-18T17:42:21.342Z,28.20
2023-04-18T17:46:29.459Z,30.10
2023-04-18T17:50:38.313Z,32.80
2023-04-18T17:54:47.185Z,28.60
2023-04-18T17:58:56.569Z,30.80
2023-04-18T18:03:05.843Z,33.50
2023-04-18T18:07:14.615Z,32.80
2023-04-18T18:11:23.287Z,26.80
2023-04-18T18:15:31.779Z,31.90
2023-04-18T18:19:39.428Z,34.10
2023-04-18T18:23:47.846Z,28.50
2023-04-18T18:27:55.731Z,28.50
2023-04-18T18:32:04.774Z,31.20
2023-04-18T18:36:12.856Z,28.70
2023-04-18T18:40:22.069Z,28.30
2023-04-18T18:44:31.094Z,31.10
2023-04-18T18:48:39.554Z,28.90
2023-04-18T18:52:48.460Z,26.50
2023-04-18T18:56:56.970Z,27.90
2023-04-18T19:01:06.082Z,26.90
2023-04-18T19:05:15.750Z,27.00
2023-04-18T19:09:24.575Z,27.20
2023-04-18T19:13:31.907Z,30.20
2023-04-18T19:17:40.250Z,27.50
2023-04-18T19:21:47.658Z,30.70
2023-04-18T19:25:57.427Z,28.70
2023-04-18T19:30:08.772Z,31.10
2023-04-18T19:34:19.174Z,32.00
2023-04-18T19:38:29.084Z,29.20
2023-04-18T19:42:37.382Z,30.20
2023-04-18T19:46:47.755Z,29.00
2023-04-18T19:50:57.560Z,28.40
2023-04-18T19:55:05.543Z,31.60
2023-04-18T19:59:13.869Z,31.50
2023-04-18T20:03:22.530Z,28.70
2023-04-18T20:07:30.847Z,29.80
2023-04-18T20:11:38.703Z,31.90
2023-04-18T20:15:46.774Z,33.80
2023-04-18T20:19:57.172Z,31.30
2023-04-18T20:24:05.743Z,34.20
2023-04-18T20:28:13.871Z,31.30
2023-04-18T20:32:21.736Z,30.40
2023-04-18T20:36:30.528Z,30.50
2023-04-18T20:40:39.053Z,30.20
2023-04-18T20:44:47.602Z,33.90
2023-04-18T20:48:56.042Z,35.30
2023-04-18T20:53:04.112Z,34.40
2023-04-18T20:57:12.373Z,30.80
2023-04-18T21:01:20.190Z,30.70
2023-04-18T21:05:27.862Z,33.20
2023-04-18T21:09:37.246Z,31.80
2023-04-18T21:13:45.076Z,31.80
2023-04-18T21:17:54.331Z,30.10
2023-04-18T21:22:02.273Z,30.20
2023-04-18T21:26:11.456Z,31.30
2023-04-18T21:30:19.914Z,29.90
2023-04-18T21:34:28.166Z,30.70
2023-04-18T21:38:35.865Z,32.90
2023-04-18T21:42:43.655Z,30.50
2023-04-18T21:46:53.034Z,31.90
2023-04-18T21:51:05.048Z,28.90
2023-04-18T21:55:14.181Z,26.10
2023-04-18T21:59:22.462Z,27.40
2023-04-18T22:03:31.851Z,26.80
2023-04-18T22:07:54.509Z,26.50
2023-04-18T22:12:05.896Z,26.50
2023-04-18T22:16:13.526Z,31.00
2023-04-18T22:20:22.096Z,27.10
2023-04-18T22:24:30.249Z,22.80
2023-04-18T22:28:37.829Z,27.40
2023-04-18T22:32:45.543Z,24.90
2023-04-18T22:36:53.813Z,27.30
2023-04-18T22:41:02.018Z,25.60
2023-04-18T22:45:11.881Z,26.10
2023-04-18T22:49:19.689Z,25.00
2023-04-18T22:53:28.306Z,25.60
2023-04-18T22:57:36.618Z,22.90
2023-04-18T23:01:44.664Z,25.30
2023-04-18T23:05:52.845Z,22.20
2023-04-18T23:10:00.844Z,22.70
2023-04-18T23:14:09.037Z,21.10
2023-04-18T23:18:17.216Z,20.30
2023-04-18T23:22:25.678Z,22.20
2023-04-18T23:26:33.571Z,23.10
2023-04-18T23:30:41.370Z,22.20
2023-04-18T23:34:49.564Z,21.30
2023-04-18T23:38:57.615Z,20.70
2023-04-18T23:43:06.200Z,21.10
2023-04-18T23:47:14.261Z,23.00
2023-04-18T23:51:21.749Z,19.10
2023-04-18T23:55:29.687Z,20.30
2023-04-18T23:59:37.330Z,23.20
